Time;durP1;ratioP1;P1;durP2;ratioP2;P2;SDS_P1;SDS_P2;PMS_P1;PMS_P2;Temp;Humidity;BMP_temperature;BMP_pressure;BME280_temperature;BME280_humidity;BME280_pressure;Samples;Min_cycle;Max_cycle;Signal;HPM_P1;HPM_P2
2021/04/11 00:00:46;;;;;;;11.85;6.78;;;;;;;;;;4957399;29;20039;-85
2021/04/11 00:03:13;;;;;;;12.80;6.95;;;;;;;;;;4940405;29;20074;-85
2021/04/11 00:05:39;;;;;;;11.60;7.00;;;;;;;;;;4940151;29;20518;-85
2021/04/11 00:08:06;;;;;;;16.20;7.32;;;;;;;;;;4957118;29;20050;-85
2021/04/11 00:10:33;;;;;;;14.93;8.30;;;;;;;;;;4940172;29;20035;-85
2021/04/11 00:13:00;;;;;;;13.48;8.43;;;;;;;;;;4940205;29;20043;-85
2021/04/11 00:15:29;;;;;;;12.63;8.95;;;;;;;;;;4924685;29;20051;-85
2021/04/11 00:17:55;;;;;;;12.75;8.50;;;;;;;;;;4939905;29;20036;-85
2021/04/11 00:20:21;;;;;;;12.35;7.53;;;;;;;;;;4956985;29;20035;-85
2021/04/11 00:22:47;;;;;;;12.65;7.90;;;;;;;;;;4939961;29;20035;-85
2021/04/11 00:25:16;;;;;;;12.02;7.38;;;;;;;;;;4939765;29;20031;-85
2021/04/11 00:27:42;;;;;;;13.07;7.70;;;;;;;;;;4923967;29;20111;-85
2021/04/11 00:30:08;;;;;;;13.00;7.35;;;;;;;;;;4956799;29;20431;-85
2021/04/11 00:32:34;;;;;;;10.77;6.72;;;;;;;;;;4939709;29;20058;-85
2021/04/11 00:35:01;;;;;;;10.48;6.90;;;;;;;;;;4924013;29;20047;-85
2021/04/11 00:37:27;;;;;;;11.18;7.20;;;;;;;;;;4939619;29;20043;-85
2021/04/11 00:39:54;;;;;;;11.68;8.05;;;;;;;;;;4939678;29;20479;-85
2021/04/11 00:42:23;;;;;;;12.60;7.63;;;;;;;;;;4939455;29;20094;-84
2021/04/11 00:44:49;;;;;;;12.85;7.72;;;;;;;;;;4923479;29;20043;-85
2021/04/11 00:47:15;;;;;;;14.57;8.07;;;;;;;;;;4939417;29;20096;-85
2021/04/11 00:49:46;;;;;;;15.27;8.35;;;;;;;;;;4923518;29;20047;-85
2021/04/11 00:52:14;;;;;;;13.00;8.50;;;;;;;;;;4923673;29;20039;-85
2021/04/11 00:54:40;;;;;;;13.55;8.38;;;;;;;;;;4923518;29;20498;-85
2021/04/11 00:57:07;;;;;;;12.88;8.60;;;;;;;;;;4939083;29;20043;-85
2021/04/11 00:59:33;;;;;;;11.18;7.35;;;;;;;;;;4923561;29;20044;-85
2021/04/11 01:01:59;;;;;;;13.43;7.50;;;;;;;;;;4939351;29;20035;-85
2021/04/11 01:04:25;;;;;;;12.95;7.60;;;;;;;;;;4939199;29;20455;-85
2021/04/11 01:06:55;;;;;;;10.80;6.88;;;;;;;;;;4923076;29;20035;-85
2021/04/11 01:09:32;;;;;;;10.27;7.05;;;;;;;;;;4939118;29;20043;-86
2021/04/11 01:11:59;;;;;;;11.88;7.90;;;;;;;;;;4939076;29;20090;-86
2021/04/11 01:14:25;;;;;;;12.15;7.80;;;;;;;;;;4923158;29;20042;-86
2021/04/11 01:16:51;;;;;;;12.85;8.27;;;;;;;;;;4938880;29;20043;-85
2021/04/11 01:19:19;;;;;;;13.73;8.02;;;;;;;;;;4938928;29;20042;-85
2021/04/11 01:22:04;;;;;;;14.20;7.95;;;;;;;;;;4938753;29;20502;-85
2021/04/11 01:24:36;;;;;;;12.10;7.13;;;;;;;;;;4956082;29;20042;-85
2021/04/11 01:27:02;;;;;;;13.10;7.53;;;;;;;;;;4937855;29;20066;-85
2021/04/11 01:29:28;;;;;;;10.98;7.13;;;;;;;;;;4938730;29;20039;-85
2021/04/11 01:31:54;;;;;;;10.77;7.80;;;;;;;;;;4938541;29;20038;-85
2021/04/11 01:34:20;;;;;;;9.02;6.50;;;;;;;;;;4955602;29;20046;-84
2021/04/11 01:36:48;;;;;;;10.02;7.00;;;;;;;;;;4938479;29;20054;-84
2021/04/11 01:39:15;;;;;;;9.82;6.57;;;;;;;;;;4922988;29;20046;-85
2021/04/11 01:41:42;;;;;;;7.78;6.35;;;;;;;;;;4922727;29;20487;-86
2021/04/11 01:44:09;;;;;;;8.77;6.18;;;;;;;;;;4922571;29;20043;-85
2021/04/11 01:46:35;;;;;;;6.82;5.13;;;;;;;;;;4938309;29;20546;-85
2021/04/11 01:49:01;;;;;;;7.45;4.90;;;;;;;;;;4938419;29;20471;-85
2021/04/11 01:51:31;;;;;;;7.82;5.43;;;;;;;;;;4938232;29;20035;-85
2021/04/11 01:53:58;;;;;;;8.20;6.50;;;;;;;;;;4921900;29;20471;-84
2021/04/11 01:56:25;;;;;;;9.35;6.55;;;;;;;;;;4922176;29;20086;-85
2021/04/11 01:58:51;;;;;;;10.20;6.68;;;;;;;;;;4922339;29;20050;-85
2021/04/11 02:01:23;;;;;;;9.25;6.97;;;;;;;;;;4922166;29;20055;-85
2021/04/11 02:03:53;;;;;;;12.50;6.72;;;;;;;;;;4955045;29;20047;-85
2021/04/11 02:06:19;;;;;;;13.70;7.70;;;;;;;;;;4937964;29;20050;-85
2021/04/11 02:08:46;;;;;;;11.05;7.63;;;;;;;;;;4922188;29;20051;-85
2021/04/11 02:11:12;;;;;;;12.48;7.25;;;;;;;;;;4922070;29;20035;-85
2021/04/11 02:13:39;;;;;;;12.93;7.78;;;;;;;;;;4937763;29;20380;-85
2021/04/11 02:16:05;;;;;;;11.35;8.00;;;;;;;;;;4937874;29;20047;-86
2021/04/11 02:18:31;;;;;;;13.70;7.97;;;;;;;;;;4937826;29;20122;-85
2021/04/11 02:20:58;;;;;;;8.18;5.97;;;;;;;;;;4937740;29;20483;-85
2021/04/11 02:23:24;;;;;;;8.25;6.00;;;;;;;;;;4937759;29;20039;-85
2021/04/11 02:25:50;;;;;;;5.78;4.70;;;;;;;;;;4937429;29;20043;-85
2021/04/11 02:28:17;;;;;;;7.47;4.30;;;;;;;;;;4937351;29;20194;-84
2021/04/11 02:30:47;;;;;;;7.50;4.20;;;;;;;;;;4937660;29;20070;-86
2021/04/11 02:33:13;;;;;;;7.97;4.22;;;;;;;;;;4937448;29;20049;-85
2021/04/11 02:35:39;;;;;;;3.97;3.58;;;;;;;;;;4921291;29;20063;-84
2021/04/11 02:38:05;;;;;;;6.55;3.80;;;;;;;;;;4937446;29;20041;-84
2021/04/11 02:40:35;;;;;;;7.03;3.70;;;;;;;;;;4937387;29;20038;-83
2021/04/11 02:43:02;;;;;;;5.50;3.60;;;;;;;;;;4937477;29;20047;-82
2021/04/11 02:45:29;;;;;;;4.45;3.83;;;;;;;;;;4937276;29;20098;-83
2021/04/11 02:47:55;;;;;;;7.22;3.20;;;;;;;;;;4937178;29;20039;-85
2021/04/11 02:50:22;;;;;;;4.88;3.47;;;;;;;;;;4954307;29;20081;-84
2021/04/11 02:52:58;;;;;;;5.22;3.30;;;;;;;;;;4937307;29;20168;-84
2021/04/11 02:55:24;;;;;;;6.28;3.58;;;;;;;;;;4937353;29;20083;-84
2021/04/11 02:57:53;;;;;;;4.38;3.25;;;;;;;;;;4937170;29;20438;-84
2021/04/11 03:00:20;;;;;;;3.65;3.22;;;;;;;;;;4937215;29;20043;-83
2021/04/11 03:02:46;;;;;;;6.15;3.45;;;;;;;;;;4937196;29;20062;-84
2021/04/11 03:05:13;;;;;;;7.50;3.70;;;;;;;;;;4936163;29;20039;-84
2021/04/11 03:07:41;;;;;;;3.83;3.30;;;;;;;;;;4937206;29;20053;-83
2021/04/11 03:10:09;;;;;;;3.92;2.92;;;;;;;;;;4937123;29;20077;-83
2021/04/11 03:12:35;;;;;;;5.68;3.38;;;;;;;;;;4937083;29;20042;-83
2021/04/11 03:15:01;;;;;;;6.10;3.05;;;;;;;;;;4937015;29;20039;-85
2021/04/11 03:17:27;;;;;;;3.75;3.00;;;;;;;;;;4936905;29;20039;-84
2021/04/11 03:19:58;;;;;;;3.10;2.60;;;;;;;;;;4921116;29;20039;-86
2021/04/11 03:22:24;;;;;;;3.42;2.75;;;;;;;;;;4936889;29;20485;-84
2021/04/11 03:24:50;;;;;;;4.60;2.85;;;;;;;;;;4936935;29;20475;-84
2021/04/11 03:27:18;;;;;;;4.28;2.50;;;;;;;;;;4936693;29;20051;-84
2021/04/11 03:29:47;;;;;;;5.05;2.95;;;;;;;;;;4937019;29;20042;-84
2021/04/11 03:32:18;;;;;;;3.53;2.50;;;;;;;;;;4953815;29;20039;-84
2021/04/11 03:34:44;;;;;;;4.13;2.65;;;;;;;;;;4936832;29;20068;-83
2021/04/11 03:37:11;;;;;;;4.97;2.28;;;;;;;;;;4936853;29;20118;-84
2021/04/11 03:39:37;;;;;;;3.95;2.90;;;;;;;;;;4936931;29;20043;-83
2021/04/11 03:42:14;;;;;;;5.15;2.78;;;;;;;;;;4920943;29;20043;-82
2021/04/11 03:44:40;;;;;;;2.75;2.47;;;;;;;;;;4936918;29;20047;-84
2021/04/11 03:47:39;;;;;;;5.45;2.90;;;;;;;;;;4920809;29;20102;-83
2021/04/11 03:50:09;;;;;;;3.80;2.70;;;;;;;;;;4895571;29;20129;-82
2021/04/11 03:52:42;;;;;;;3.72;2.63;;;;;;;;;;4936818;29;20075;-83
2021/04/11 03:55:10;;;;;;;2.85;2.22;;;;;;;;;;4936825;29;20046;-83
2021/04/11 03:57:46;;;;;;;4.72;2.47;;;;;;;;;;4936598;29;20043;-83
2021/04/11 04:00:13;;;;;;;5.93;2.55;;;;;;;;;;4921907;29;20485;-83
2021/04/11 04:02:39;;;;;;;4.43;2.50;;;;;;;;;;4936874;29;20131;-84
2021/04/11 04:05:06;;;;;;;5.38;2.63;;;;;;;;;;4936693;29;20046;-84
2021/04/11 04:07:37;;;;;;;3.45;2.67;;;;;;;;;;4936558;29;20452;-84
2021/04/11 04:10:04;;;;;;;4.18;3.00;;;;;;;;;;4936595;29;20043;-83
2021/04/11 04:12:36;;;;;;;4.78;2.58;;;;;;;;;;4936559;29;20062;-84
2021/04/11 04:15:17;;;;;;;3.35;2.53;;;;;;;;;;4920784;29;20035;-83
2021/04/11 04:17:56;;;;;;;4.70;2.55;;;;;;;;;;4955828;28;20062;-84
2021/04/11 04:20:57;;;;;;;4.82;2.58;;;;;;;;;;4940134;29;20039;-84
2021/04/11 04:23:26;;;;;;;5.78;2.60;;;;;;;;;;4879215;29;20045;-84
2021/04/11 04:26:01;;;;;;;2.90;2.28;;;;;;;;;;4926047;29;20055;-83
2021/04/11 04:28:27;;;;;;;4.70;2.20;;;;;;;;;;4956721;28;20096;-84
2021/04/11 04:30:53;;;;;;;3.50;2.30;;;;;;;;;;4956851;29;20074;-83
2021/04/11 04:33:22;;;;;;;3.15;2.13;;;;;;;;;;4939675;29;20447;-84
2021/04/11 04:35:51;;;;;;;3.28;2.10;;;;;;;;;;4939696;29;20538;-82
2021/04/11 04:38:17;;;;;;;3.22;2.33;;;;;;;;;;4956690;29;20045;-84
2021/04/11 04:41:02;;;;;;;2.53;2.08;;;;;;;;;;4956759;29;20039;-84
2021/04/11 04:43:37;;;;;;;4.70;1.98;;;;;;;;;;4956602;29;20039;-83
2021/04/11 04:46:14;;;;;;;3.72;2.50;;;;;;;;;;4939721;29;20051;-83
2021/04/11 04:48:57;;;;;;;6.53;2.47;;;;;;;;;;4939465;29;20047;-84
2021/04/11 04:51:26;;;;;;;2.92;2.20;;;;;;;;;;4939546;29;20066;-83
2021/04/11 04:54:04;;;;;;;2.50;2.00;;;;;;;;;;4939370;29;20094;-83
2021/04/11 04:56:35;;;;;;;7.05;2.38;;;;;;;;;;4956293;29;20043;-84
2021/04/11 04:59:02;;;;;;;4.17;2.03;;;;;;;;;;4923393;29;20439;-84
2021/04/11 05:01:31;;;;;;;2.92;2.00;;;;;;;;;;4939162;29;20035;-83
2021/04/11 05:04:00;;;;;;;3.00;2.10;;;;;;;;;;4939169;29;20043;-83
2021/04/11 05:06:27;;;;;;;4.22;1.83;;;;;;;;;;4938959;29;20043;-83
2021/04/11 05:09:06;;;;;;;2.33;1.80;;;;;;;;;;4923146;29;20058;-85
2021/04/11 05:11:37;;;;;;;3.50;1.98;;;;;;;;;;4939029;29;20035;-85
2021/04/11 05:14:11;;;;;;;2.57;1.70;;;;;;;;;;4939168;29;20039;-83
2021/04/11 05:16:38;;;;;;;3.47;1.80;;;;;;;;;;4938864;29;20046;-83
2021/04/11 05:19:11;;;;;;;4.93;2.50;;;;;;;;;;4923081;29;20046;-84
2021/04/11 05:21:41;;;;;;;3.13;2.03;;;;;;;;;;4938847;29;20118;-83
2021/04/11 05:24:09;;;;;;;3.08;1.83;;;;;;;;;;4922955;29;20113;-84
2021/04/11 05:26:55;;;;;;;2.78;1.70;;;;;;;;;;4938505;29;20059;-82
2021/04/11 05:29:22;;;;;;;3.13;1.55;;;;;;;;;;4937770;29;20122;-85
2021/04/11 05:31:48;;;;;;;3.50;1.60;;;;;;;;;;4938732;29;20035;-84
2021/04/11 05:34:15;;;;;;;2.60;2.08;;;;;;;;;;4938612;29;20035;-83
2021/04/11 05:36:41;;;;;;;2.40;1.65;;;;;;;;;;4938430;29;20039;-84
2021/04/11 05:39:12;;;;;;;2.75;1.80;;;;;;;;;;4938483;29;20082;-88
2021/04/11 05:41:42;;;;;;;3.53;1.80;;;;;;;;;;4938547;29;20039;-85
2021/04/11 05:44:16;;;;;;;1.67;1.33;;;;;;;;;;4922565;29;20071;-86
2021/04/11 05:46:51;;;;;;;1.45;1.15;;;;;;;;;;4938280;29;20043;-85
2021/04/11 05:49:25;;;;;;;2.55;1.23;;;;;;;;;;4922246;29;20047;-84
2021/04/11 05:51:52;;;;;;;2.78;1.30;;;;;;;;;;4922363;29;20039;-83
2021/04/11 05:54:22;;;;;;;3.28;1.45;;;;;;;;;;4922554;29;20403;-84
2021/04/11 05:56:53;;;;;;;3.25;1.65;;;;;;;;;;4937986;29;20051;-85
2021/04/11 05:59:24;;;;;;;1.67;1.30;;;;;;;;;;4938200;29;20070;-85
2021/04/11 06:01:56;;;;;;;3.72;1.30;;;;;;;;;;4938211;29;20046;-85
2021/04/11 06:04:35;;;;;;;4.72;1.80;;;;;;;;;;4938122;29;20464;-85
2021/04/11 06:07:20;;;;;;;2.35;1.30;;;;;;;;;;4954776;29;20118;-86
2021/04/11 06:09:47;;;;;;;1.83;1.50;;;;;;;;;;4954985;29;20475;-85
2021/04/11 06:12:20;;;;;;;2.05;1.60;;;;;;;;;;4938010;29;20126;-85
2021/04/11 06:14:50;;;;;;;2.47;1.48;;;;;;;;;;4922311;29;20043;-84
2021/04/11 06:17:16;;;;;;;3.05;1.40;;;;;;;;;;4954756;29;20066;-83
2021/04/11 06:19:43;;;;;;;1.83;1.52;;;;;;;;;;4921765;29;20126;-85
2021/04/11 06:22:20;;;;;;;1.73;1.50;;;;;;;;;;4937738;29;20376;-86
2021/04/11 06:24:52;;;;;;;2.05;1.48;;;;;;;;;;4905900;29;20047;-85
2021/04/11 06:27:24;;;;;;;1.88;1.40;;;;;;;;;;4921619;29;20051;-85
2021/04/11 06:30:09;;;;;;;2.53;1.60;;;;;;;;;;4921785;29;20067;-85
2021/04/11 06:32:36;;;;;;;1.73;1.45;;;;;;;;;;4954631;29;20459;-85
2021/04/11 06:35:03;;;;;;;3.58;1.52;;;;;;;;;;4937499;29;20039;-86
2021/04/11 06:37:30;;;;;;;2.13;1.50;;;;;;;;;;4937412;29;20122;-86
2021/04/11 06:39:56;;;;;;;2.80;1.33;;;;;;;;;;4937375;29;20506;-87
2021/04/11 06:42:45;;;;;;;1.75;1.20;;;;;;;;;;4919952;29;20051;-87
2021/04/11 06:45:11;;;;;;;4.53;1.38;;;;;;;;;;4918185;29;20126;-88
2021/04/11 06:47:57;;;;;;;5.18;1.20;;;;;;;;;;4934964;29;20091;-87
2021/04/11 06:50:29;;;;;;;2.38;1.17;;;;;;;;;;4935044;29;20368;-88
2021/04/11 06:52:58;;;;;;;2.70;1.30;;;;;;;;;;4918136;29;20501;-87
2021/04/11 06:55:24;;;;;;;3.90;1.33;;;;;;;;;;4918067;29;20271;-87
2021/04/11 06:58:02;;;;;;;3.63;1.48;;;;;;;;;;4935106;29;20385;-86
2021/04/11 07:00:32;;;;;;;4.22;1.40;;;;;;;;;;4917935;29;20044;-86
2021/04/11 07:02:58;;;;;;;2.88;1.15;;;;;;;;;;4902262;29;20067;-84
2021/04/11 07:05:27;;;;;;;4.15;1.40;;;;;;;;;;4934934;29;20035;-85
2021/04/11 07:08:11;;;;;;;2.42;1.23;;;;;;;;;;4934994;29;20498;-83
2021/04/11 07:10:37;;;;;;;2.33;1.10;;;;;;;;;;4918107;29;20043;-86
2021/04/11 07:13:12;;;;;;;3.30;1.30;;;;;;;;;;4934643;29;20496;-85
2021/04/11 07:15:41;;;;;;;5.60;1.23;;;;;;;;;;4934703;29;20051;-85
2021/04/11 07:18:07;;;;;;;6.95;1.90;;;;;;;;;;4934798;29;20044;-85
2021/04/11 07:20:45;;;;;;;2.10;0.90;;;;;;;;;;4918718;29;20067;-85
2021/04/11 07:23:20;;;;;;;4.60;1.33;;;;;;;;;;4937079;29;20058;-84
2021/04/11 07:26:09;;;;;;;4.22;1.15;;;;;;;;;;4934607;29;20042;-85
2021/04/11 07:28:38;;;;;;;4.05;1.30;;;;;;;;;;4902093;29;20044;-85
2021/04/11 07:31:27;;;;;;;4.18;1.25;;;;;;;;;;4917840;29;20499;-85
2021/04/11 07:34:08;;;;;;;4.45;1.23;;;;;;;;;;4927405;29;20143;-84
2021/04/11 07:36:37;;;;;;;3.65;1.50;;;;;;;;;;4937136;29;20067;-84
2021/04/11 07:39:06;;;;;;;3.78;1.23;;;;;;;;;;4935426;29;20550;-85
2021/04/11 07:41:51;;;;;;;8.88;1.77;;;;;;;;;;4902054;29;20044;-85
2021/04/11 07:44:26;;;;;;;3.17;1.27;;;;;;;;;;4934572;29;20044;-84
2021/04/11 07:47:04;;;;;;;3.78;1.60;;;;;;;;;;4934362;29;20035;-86
2021/04/11 07:49:49;;;;;;;5.07;1.20;;;;;;;;;;4917447;29;20440;-86
2021/04/11 07:52:28;;;;;;;6.45;1.40;;;;;;;;;;4935966;29;20502;-86
2021/04/11 07:55:10;;;;;;;4.93;2.03;;;;;;;;;;4921396;29;20131;-86
2021/04/11 07:57:38;;;;;;;5.07;1.67;;;;;;;;;;4921168;29;20054;-87
2021/04/11 08:00:09;;;;;;;7.82;1.40;;;;;;;;;;4905580;29;20082;-87
2021/04/11 08:02:41;;;;;;;5.57;1.50;;;;;;;;;;4905601;29;20096;-85
2021/04/11 08:05:15;;;;;;;5.65;1.60;;;;;;;;;;4920943;29;20047;-84
2021/04/11 08:08:00;;;;;;;6.57;1.50;;;;;;;;;;4937788;29;20048;-85
2021/04/11 08:10:26;;;;;;;1.65;1.10;;;;;;;;;;4938082;29;20118;-86
2021/04/11 08:12:56;;;;;;;3.35;1.50;;;;;;;;;;4937777;29;20067;-86
2021/04/11 08:15:26;;;;;;;5.60;2.08;;;;;;;;;;4920473;29;20156;-86
2021/04/11 08:18:01;;;;;;;3.78;1.27;;;;;;;;;;4920450;29;20055;-86
2021/04/11 08:20:46;;;;;;;3.17;1.30;;;;;;;;;;4937705;29;20046;-85
2021/04/11 08:23:31;;;;;;;3.10;1.55;;;;;;;;;;4920387;29;20036;-86
2021/04/11 08:26:15;;;;;;;3.13;1.17;;;;;;;;;;4937550;29;20073;-86
2021/04/11 08:29:00;;;;;;;4.88;1.17;;;;;;;;;;4937363;29;20040;-85
2021/04/11 08:31:31;;;;;;;2.58;0.98;;;;;;;;;;4937753;29;20039;-86
2021/04/11 08:34:03;;;;;;;4.60;1.17;;;;;;;;;;4920799;29;20031;-87
2021/04/11 08:36:47;;;;;;;7.07;1.20;;;;;;;;;;4920665;29;20126;-86
2021/04/11 08:39:26;;;;;;;3.70;1.35;;;;;;;;;;4937113;29;20371;-87
2021/04/11 08:41:55;;;;;;;5.30;1.08;;;;;;;;;;4920494;29;20499;-87
2021/04/11 08:44:21;;;;;;;4.20;1.30;;;;;;;;;;4920203;29;20047;-86
2021/04/11 08:46:53;;;;;;;3.00;1.17;;;;;;;;;;4919869;29;20044;-85
2021/04/11 08:49:23;;;;;;;3.67;1.30;;;;;;;;;;4904526;29;20054;-85
2021/04/11 08:51:54;;;;;;;1.48;1.02;;;;;;;;;;4937097;29;20052;-85
2021/04/11 08:54:32;;;;;;;4.97;1.50;;;;;;;;;;4920047;29;20137;-85
2021/04/11 08:56:59;;;;;;;3.78;1.25;;;;;;;;;;4937032;29;20039;-86
2021/04/11 08:59:32;;;;;;;3.85;1.10;;;;;;;;;;4919956;29;20214;-85
2021/04/11 09:01:58;;;;;;;;;;;;;;;;;;4937408;29;20039;-85
2021/04/11 09:04:37;;;;;;;3.20;1.10;;;;;;;;;;4918646;29;19919;-84
2021/04/11 09:07:03;;;;;;;4.80;1.13;;;;;;;;;;4919766;29;20090;-86
2021/04/11 09:09:33;;;;;;;5.25;1.10;;;;;;;;;;4936786;29;20051;-86
2021/04/11 09:12:05;;;;;;;3.33;1.02;;;;;;;;;;4922568;29;20047;-86
2021/04/11 09:14:42;;;;;;;2.75;0.90;;;;;;;;;;4936985;29;20058;-86
2021/04/11 09:17:16;;;;;;;3.35;1.00;;;;;;;;;;4949677;29;20039;-88
2021/04/11 09:19:54;;;;;;;3.55;1.35;;;;;;;;;;4953581;29;20479;-87
2021/04/11 09:22:39;;;;;;;1.85;1.00;;;;;;;;;;4919681;29;20050;-87
2021/04/11 09:25:13;;;;;;;3.00;1.13;;;;;;;;;;4919145;29;20039;-87
2021/04/11 09:27:57;;;;;;;6.40;1.20;;;;;;;;;;4948384;29;20051;-86
2021/04/11 09:30:43;;;;;;;3.80;1.02;;;;;;;;;;4956127;29;20035;-88
2021/04/11 09:33:27;;;;;;;3.83;1.20;;;;;;;;;;4922863;29;20106;-88
2021/04/11 09:36:02;;;;;;;2.92;1.40;;;;;;;;;;4955636;29;20043;-86
2021/04/11 09:38:34;;;;;;;2.65;1.17;;;;;;;;;;4955816;29;20047;-86
2021/04/11 09:41:06;;;;;;;4.77;1.20;;;;;;;;;;4955580;28;20380;-85
2021/04/11 09:43:48;;;;;;;4.15;1.25;;;;;;;;;;4958322;28;20115;-85
2021/04/11 09:46:26;;;;;;;5.25;1.40;;;;;;;;;;4960737;28;20054;-86
2021/04/11 09:49:11;;;;;;;3.35;1.40;;;;;;;;;;4938080;29;20110;-86
2021/04/11 09:51:45;;;;;;;2.42;1.10;;;;;;;;;;4938087;29;20055;-85
2021/04/11 09:54:17;;;;;;;5.22;1.20;;;;;;;;;;4954105;29;20102;-83
2021/04/11 09:56:52;;;;;;;4.20;1.20;;;;;;;;;;4956189;29;20043;-83
2021/04/11 09:59:25;;;;;;;3.72;1.58;;;;;;;;;;4954574;29;20470;-86
2021/04/11 10:01:55;;;;;;;4.60;1.67;;;;;;;;;;4954093;29;20032;-87
2021/04/11 10:04:30;;;;;;;3.97;1.60;;;;;;;;;;4953911;29;20122;-87
2021/04/11 10:07:02;;;;;;;4.40;1.40;;;;;;;;;;4937805;29;20039;-86
2021/04/11 10:09:36;;;;;;;3.63;1.30;;;;;;;;;;4953892;29;20118;-87
2021/04/11 10:12:07;;;;;;;6.50;1.55;;;;;;;;;;4937998;29;20086;-86
2021/04/11 10:14:36;;;;;;;4.05;1.58;;;;;;;;;;4956492;28;20057;-84
2021/04/11 10:17:07;;;;;;;5.97;1.52;;;;;;;;;;4955908;28;20053;-84
2021/04/11 10:19:33;;;;;;;4.03;2.40;;;;;;;;;;4955178;28;20039;-84
2021/04/11 10:22:18;;;;;;;4.93;1.52;;;;;;;;;;4973970;28;20167;-84
2021/04/11 10:25:01;;;;;;;3.97;1.30;;;;;;;;;;4974124;28;20038;-84
2021/04/11 10:27:27;;;;;;;4.07;1.58;;;;;;;;;;4959459;28;20046;-86
2021/04/11 10:29:53;;;;;;;4.35;1.83;;;;;;;;;;4972682;28;20049;-87
2021/04/11 10:32:19;;;;;;;8.65;2.17;;;;;;;;;;4956902;28;20050;-88
2021/04/11 10:35:06;;;;;;;3.90;1.40;;;;;;;;;;4972634;28;20536;-86
2021/04/11 10:37:38;;;;;;;5.47;1.45;;;;;;;;;;4972056;28;20070;-86
2021/04/11 10:40:07;;;;;;;5.55;1.40;;;;;;;;;;4973291;28;20035;-87
2021/04/11 10:42:42;;;;;;;2.40;1.23;;;;;;;;;;4972654;28;20114;-86
2021/04/11 10:45:18;;;;;;;3.17;1.27;;;;;;;;;;4973277;28;20045;-86
2021/04/11 10:47:44;;;;;;;4.25;1.20;;;;;;;;;;4973504;28;20062;-86
2021/04/11 10:50:10;;;;;;;4.20;1.50;;;;;;;;;;4972413;28;20478;-87
2021/04/11 10:52:51;;;;;;;5.05;1.25;;;;;;;;;;4973571;28;20045;-87
2021/04/11 10:55:20;;;;;;;4.00;1.50;;;;;;;;;;4972411;28;20042;-87
2021/04/11 10:58:05;;;;;;;4.03;1.00;;;;;;;;;;4956219;28;20498;-87
2021/04/11 11:00:50;;;;;;;3.33;1.27;;;;;;;;;;4968105;28;20077;-86
2021/04/11 11:03:22;;;;;;;3.58;1.40;;;;;;;;;;4953083;28;20399;-86
2021/04/11 11:05:59;;;;;;;2.80;1.00;;;;;;;;;;4968575;28;20047;-86
2021/04/11 11:08:44;;;;;;;4.78;1.25;;;;;;;;;;4968934;28;20039;-86
2021/04/11 11:11:28;;;;;;;3.33;1.35;;;;;;;;;;4953917;29;20047;-86
2021/04/11 11:14:02;;;;;;;3.88;1.30;;;;;;;;;;4953983;28;20039;-86
2021/04/11 11:16:47;;;;;;;3.97;1.42;;;;;;;;;;4968722;28;20497;-88
2021/04/11 11:19:32;;;;;;;8.13;1.67;;;;;;;;;;4952799;29;20043;-86
2021/04/11 11:22:04;;;;;;;4.60;1.48;;;;;;;;;;4952616;29;20070;-86
2021/04/11 11:24:49;;;;;;;6.55;1.80;;;;;;;;;;4958900;28;20034;-86
2021/04/11 11:27:34;;;;;;;3.70;1.50;;;;;;;;;;4955242;28;20062;-86
2021/04/11 11:30:15;;;;;;;7.88;1.90;;;;;;;;;;4956616;29;20074;-86
2021/04/11 11:32:41;;;;;;;7.35;1.60;;;;;;;;;;4956675;29;20398;-86
2021/04/11 11:35:08;;;;;;;2.95;1.17;;;;;;;;;;4957763;29;20042;-86
2021/04/11 11:37:46;;;;;;;5.47;1.45;;;;;;;;;;4957922;28;20042;-86
2021/04/11 11:40:15;;;;;;;4.10;1.52;;;;;;;;;;4976900;28;20039;-86
2021/04/11 11:42:44;;;;;;;3.50;1.40;;;;;;;;;;4976922;28;20482;-85
2021/04/11 11:45:29;;;;;;;2.50;1.25;;;;;;;;;;4959798;28;20119;-86
2021/04/11 11:47:57;;;;;;;3.13;1.30;;;;;;;;;;4976835;28;20071;-86
2021/04/11 11:50:26;;;;;;;3.47;1.77;;;;;;;;;;4943650;28;20409;-86
2021/04/11 11:52:57;;;;;;;3.42;1.33;;;;;;;;;;4959580;28;20039;-87
2021/04/11 11:55:31;;;;;;;3.28;1.33;;;;;;;;;;4943786;28;20482;-87
2021/04/11 11:57:59;;;;;;;3.42;1.20;;;;;;;;;;4959579;28;20119;-86
2021/04/11 12:00:27;;;;;;;3.70;1.10;;;;;;;;;;4959425;28;20035;-86
2021/04/11 12:03:12;;;;;;;3.78;1.75;;;;;;;;;;4943442;28;20073;-86
2021/04/11 12:05:38;;;;;;;3.08;0.90;;;;;;;;;;4959265;28;20458;-85
2021/04/11 12:08:11;;;;;;;1.42;0.80;;;;;;;;;;4976532;28;20497;-85
2021/04/11 12:11:00;;;;;;;2.33;0.90;;;;;;;;;;4959606;28;20039;-86
2021/04/11 12:13:35;;;;;;;1.85;0.88;;;;;;;;;;4966178;28;20081;-85
2021/04/11 12:16:01;;;;;;;1.02;0.68;;;;;;;;;;4959070;28;20063;-86
2021/04/11 12:18:28;;;;;;;1.00;0.68;;;;;;;;;;4976287;28;20035;-86
2021/04/11 12:21:03;;;;;;;2.35;0.80;;;;;;;;;;4948320;28;20039;-86
2021/04/11 12:23:31;;;;;;;3.45;1.35;;;;;;;;;;4941194;28;20267;-86
2021/04/11 12:26:12;;;;;;;2.88;1.00;;;;;;;;;;4941383;28;20451;-87
2021/04/11 12:28:38;;;;;;;2.42;0.90;;;;;;;;;;4971424;28;20055;-83
2021/04/11 12:31:13;;;;;;;3.65;1.10;;;;;;;;;;4958864;28;20070;-86
2021/04/11 12:34:10;;;;;;;2.50;0.90;;;;;;;;;;4974880;28;20049;-86
2021/04/11 12:36:44;;;;;;;3.05;1.25;;;;;;;;;;4975689;28;20061;-86
2021/04/11 12:39:21;;;;;;;3.53;0.90;;;;;;;;;;4958447;28;20054;-87
2021/04/11 12:42:02;;;;;;;5.47;1.17;;;;;;;;;;4974762;28;20205;-85
2021/04/11 12:44:43;;;;;;;5.97;1.20;;;;;;;;;;4974713;28;20038;-85
2021/04/11 12:47:18;;;;;;;4.50;1.15;;;;;;;;;;4958501;28;20065;-85
2021/04/11 12:49:59;;;;;;;3.53;1.10;;;;;;;;;;4974554;28;20505;-85
2021/04/11 12:52:36;;;;;;;3.40;1.02;;;;;;;;;;4974416;28;20034;-86
2021/04/11 12:55:04;;;;;;;1.80;1.02;;;;;;;;;;4974482;28;20406;-85
2021/04/11 12:57:39;;;;;;;4.75;1.17;;;;;;;;;;4974267;28;20047;-85
2021/04/11 13:00:12;;;;;;;2.90;1.08;;;;;;;;;;4957918;28;20498;-85
2021/04/11 13:02:58;;;;;;;5.35;1.10;;;;;;;;;;4975734;28;20046;-86
2021/04/11 13:05:28;;;;;;;3.15;1.05;;;;;;;;;;4955116;28;20061;-85
2021/04/11 13:07:57;;;;;;;4.68;1.10;;;;;;;;;;4974120;28;20485;-85
2021/04/11 13:10:27;;;;;;;3.33;0.88;;;;;;;;;;4974356;28;20113;-87
2021/04/11 13:13:06;;;;;;;3.05;1.00;;;;;;;;;;4958239;28;20034;-86
2021/04/11 13:15:36;;;;;;;1.75;0.75;;;;;;;;;;4974108;28;20106;-86
2021/04/11 13:18:02;;;;;;;2.13;1.10;;;;;;;;;;4974069;28;20043;-85
2021/04/11 13:20:37;;;;;;;2.80;0.90;;;;;;;;;;4975172;28;20046;-86
2021/04/11 13:23:18;;;;;;;1.00;0.73;;;;;;;;;;4975207;28;20043;-86
2021/04/11 13:25:44;;;;;;;5.85;1.20;;;;;;;;;;4975149;28;20482;-86
2021/04/11 13:28:22;;;;;;;9.85;1.30;;;;;;;;;;4973894;28;20062;-85
2021/04/11 13:31:11;;;;;;;13.60;1.38;;;;;;;;;;4974944;28;20035;-86
2021/04/11 13:33:53;;;;;;;4.05;1.05;;;;;;;;;;4973939;28;20045;-86
2021/04/11 13:36:23;;;;;;;3.35;1.13;;;;;;;;;;4941659;28;20047;-85
2021/04/11 13:38:49;;;;;;;2.97;0.70;;;;;;;;;;4957721;28;20047;-86
2021/04/11 13:41:30;;;;;;;2.75;1.00;;;;;;;;;;4957418;28;20094;-85
2021/04/11 13:44:03;;;;;;;2.60;0.90;;;;;;;;;;4973731;28;20090;-86
2021/04/11 13:46:42;;;;;;;0.85;0.77;;;;;;;;;;4973485;28;20577;-85
2021/04/11 13:49:23;;;;;;;4.18;1.00;;;;;;;;;;4973005;28;20039;-86
2021/04/11 13:51:53;;;;;;;1.27;0.70;;;;;;;;;;4974614;28;20134;-86
2021/04/11 13:54:24;;;;;;;3.67;1.08;;;;;;;;;;4974698;28;20039;-86
2021/04/11 13:57:05;;;;;;;2.25;0.90;;;;;;;;;;4957528;28;20046;-86
2021/04/11 13:59:37;;;;;;;2.22;1.00;;;;;;;;;;4973491;28;20043;-86
2021/04/11 14:02:21;;;;;;;2.08;0.80;;;;;;;;;;4973224;28;20390;-86
2021/04/11 14:05:05;;;;;;;0.90;0.82;;;;;;;;;;4974360;28;20034;-86
2021/04/11 14:07:36;;;;;;;1.98;1.23;;;;;;;;;;4957049;28;20043;-85
2021/04/11 14:10:07;;;;;;;4.47;1.02;;;;;;;;;;4957206;28;20047;-87
2021/04/11 14:12:39;;;;;;;6.68;1.20;;;;;;;;;;4972979;28;20494;-86
2021/04/11 14:15:06;;;;;;;2.15;0.80;;;;;;;;;;4973157;28;20168;-86
2021/04/11 14:17:35;;;;;;;5.25;1.60;;;;;;;;;;4973048;28;20133;-86
2021/04/11 14:20:04;;;;;;;3.95;1.15;;;;;;;;;;4972812;28;20097;-86
2021/04/11 14:22:46;;;;;;;4.75;1.13;;;;;;;;;;4972492;28;20090;-86
2021/04/11 14:25:14;;;;;;;4.57;1.08;;;;;;;;;;4956956;28;20042;-86
2021/04/11 14:27:43;;;;;;;5.60;0.90;;;;;;;;;;4956443;28;20059;-86
2021/04/11 14:30:15;;;;;;;2.38;0.68;;;;;;;;;;4969152;28;20042;-87
2021/04/11 14:32:42;;;;;;;2.08;1.00;;;;;;;;;;4943866;28;20093;-87
2021/04/11 14:35:13;;;;;;;4.10;0.98;;;;;;;;;;4953489;28;20495;-87
2021/04/11 14:37:42;;;;;;;2.28;0.80;;;;;;;;;;4953142;28;20039;-85
2021/04/11 14:40:13;;;;;;;2.92;0.65;;;;;;;;;;4954283;28;20035;-85
2021/04/11 14:42:48;;;;;;;1.40;0.68;;;;;;;;;;4969294;28;20438;-86
2021/04/11 14:45:17;;;;;;;2.92;0.80;;;;;;;;;;4969339;28;20458;-87
2021/04/11 14:47:48;;;;;;;4.25;0.70;;;;;;;;;;4952893;29;20063;-86
2021/04/11 14:50:28;;;;;;;2.60;0.70;;;;;;;;;;4953220;29;20039;-86
2021/04/11 14:52:56;;;;;;;6.57;0.70;;;;;;;;;;4952990;29;20070;-87
2021/04/11 14:55:32;;;;;;;2.33;0.77;;;;;;;;;;4952867;29;20035;-87
2021/04/11 14:58:09;;;;;;;4.00;0.70;;;;;;;;;;4952782;29;20411;-86
2021/04/11 15:00:37;;;;;;;2.80;0.82;;;;;;;;;;4952787;28;20047;-85
2021/04/11 15:03:08;;;;;;;1.00;0.70;;;;;;;;;;4968827;28;20396;-85
2021/04/11 15:05:36;;;;;;;4.95;0.80;;;;;;;;;;4952811;29;20094;-84
2021/04/11 15:08:05;;;;;;;3.30;0.60;;;;;;;;;;4968533;28;20078;-85
2021/04/11 15:10:33;;;;;;;1.83;0.75;;;;;;;;;;4952752;29;20066;-84